Time;durP1;ratioP1;P1;durP2;ratioP2;P2;SDS_P1;SDS_P2;PMS_P1;PMS_P2;Temp;Humidity;BMP_temperature;BMP_pressure;BME280_temperature;BME280_humidity;BME280_pressure;Samples;Min_cycle;Max_cycle;Signal;HPM_P1;HPM_P2
2023/04/15 00:00:14;;;;;;;;;;;;;;;15.90;60.21;98915.00;5092221;28;20383;-37
2023/04/15 00:02:40;;;;;;;;;;;;;;;15.97;60.20;98913.69;5091983;28;19965;-36
2023/04/15 00:05:05;;;;;;;;;;;;;;;16.10;58.98;98912.41;5091996;28;19919;-36
2023/04/15 00:07:31;;;;;;;;;;;;;;;16.16;59.03;98900.66;5091951;28;20292;-37
2023/04/15 00:09:57;;;;;;;;;;;;;;;15.52;61.15;98903.44;5092169;28;20406;-38
2023/04/15 00:12:23;;;;;;;;;;;;;;;15.43;61.69;98913.81;5092159;28;19943;-37
2023/04/15 00:14:48;;;;;;;;;;;;;;;15.71;60.90;98918.06;5091952;28;19912;-38
2023/04/15 00:17:14;;;;;;;;;;;;;;;16.00;59.20;98923.91;5091908;28;19912;-37
2023/04/15 00:19:39;;;;;;;;;;;;;;;16.10;59.63;98925.03;5091802;28;19912;-37
2023/04/15 00:22:05;;;;;;;;;;;;;;;16.01;59.62;98930.91;5091724;28;19934;-37
2023/04/15 00:24:31;;;;;;;;;;;;;;;16.08;59.44;98933.34;5091799;28;19920;-38
2023/04/15 00:26:56;;;;;;;;;;;;;;;16.31;58.35;98923.28;5092076;28;19920;-42
2023/04/15 00:29:22;;;;;;;;;;;;;;;16.32;58.65;98925.69;5091121;28;20413;-38
2023/04/15 00:31:47;;;;;;;;;;;;;;;16.41;58.20;98931.38;5092009;28;20269;-38
2023/04/15 00:34:12;;;;;;;;;;;;;;;16.00;59.21;98926.59;5091175;28;19963;-38
2023/04/15 00:36:38;;;;;;;;;;;;;;;15.67;60.30;98908.06;5091128;28;19935;-38
2023/04/15 00:39:04;;;;;;;;;;;;;;;15.73;60.06;98910.59;5091688;28;19962;-38
2023/04/15 00:41:30;;;;;;;;;;;;;;;15.43;61.28;98909.25;5091819;28;19924;-37
2023/04/15 00:43:55;;;;;;;;;;;;;;;15.10;62.31;98912.16;5090816;28;20304;-37
2023/04/15 00:46:21;;;;;;;;;;;;;;;15.22;62.28;98916.28;5091334;28;19912;-37
2023/04/15 00:48:46;;;;;;;;;;;;;;;15.43;60.83;98919.97;5091350;28;20402;-37
2023/04/15 00:51:12;;;;;;;;;;;;;;;15.38;61.20;98921.78;5091413;28;20007;-37
2023/04/15 00:53:38;;;;;;;;;;;;;;;15.66;60.94;98923.38;5091278;28;19920;-37
2023/04/15 00:56:03;;;;;;;;;;;;;;;15.11;62.02;98913.78;5091544;28;20368;-37
2023/04/15 00:58:28;;;;;;;;;;;;;;;15.04;62.91;98913.97;5091427;28;19923;-37
2023/04/15 01:00:54;;;;;;;;;;;;;;;15.10;62.10;98914.81;5091588;28;20435;-37
2023/04/15 01:03:20;;;;;;;;;;;;;;;14.96;62.71;98901.03;5091183;28;20062;-37
2023/04/15 01:05:45;;;;;;;;;;;;;;;14.78;63.49;98902.19;5091178;28;19912;-38
2023/04/15 01:08:10;;;;;;;;;;;;;;;14.81;63.26;98904.34;5091257;28;19999;-38
2023/04/15 01:10:36;;;;;;;;;;;;;;;14.79;62.62;98895.75;5091203;28;19912;-38
2023/04/15 01:13:02;;;;;;;;;;;;;;;14.70;63.50;98902.63;5091090;28;20285;-37
2023/04/15 01:15:27;;;;;;;;;;;;;;;14.69;63.72;98901.81;5091385;28;20140;-38
2023/04/15 01:17:53;;;;;;;;;;;;;;;15.09;61.66;98915.91;5091185;28;20270;-37
2023/04/15 01:20:19;;;;;;;;;;;;;;;14.94;61.82;98920.03;5091081;28;19925;-38
2023/04/15 01:22:44;;;;;;;;;;;;;;;14.64;63.39;98924.00;5091006;28;19927;-37
2023/04/15 01:25:11;;;;;;;;;;;;;;;14.26;63.33;98917.63;5091039;28;19924;-37
2023/04/15 01:27:41;;;;;;;;;;;;;;;14.51;62.87;98926.19;5091026;28;19912;-38
2023/04/15 01:30:06;;;;;;;;;;;;;;;14.72;62.10;98932.66;5091120;28;19912;-37
2023/04/15 01:32:32;;;;;;;;;;;;;;;14.58;62.07;98926.84;5091032;28;19912;-38
2023/04/15 01:34:57;;;;;;;;;;;;;;;14.22;62.97;98919.16;5091060;28;19912;-38
2023/04/15 01:37:23;;;;;;;;;;;;;;;14.28;62.78;98912.03;5091432;28;19999;-37
2023/04/15 01:39:48;;;;;;;;;;;;;;;14.32;61.80;98923.00;5090983;28;19919;-38
2023/04/15 01:42:14;;;;;;;;;;;;;;;13.92;63.44;98927.56;5090913;28;19924;-38
2023/04/15 01:44:39;;;;;;;;;;;;;;;14.16;62.46;98922.81;5090825;28;19999;-37
2023/04/15 01:47:05;;;;;;;;;;;;;;;14.60;61.63;98922.06;5093547;28;20016;-38
2023/04/15 01:49:31;;;;;;;;;;;;;;;14.52;61.82;98931.31;5094747;28;19948;-38
2023/04/15 01:51:56;;;;;;;;;;;;;;;13.78;64.62;98934.28;5094852;28;19916;-35
2023/04/15 01:54:22;;;;;;;;;;;;;;;13.76;64.63;98931.84;5094760;28;19954;-37
2023/04/15 01:56:47;;;;;;;;;;;;;;;13.67;64.95;98936.81;5094950;28;19918;-37
2023/04/15 01:59:12;;;;;;;;;;;;;;;13.67;64.01;98947.50;5094949;28;20353;-37
2023/04/15 02:01:38;;;;;;;;;;;;;;;13.92;63.33;98962.34;5094594;28;20359;-36
2023/04/15 02:04:03;;;;;;;;;;;;;;;14.29;61.60;98977.84;5094589;28;19959;-37
2023/04/15 02:06:29;;;;;;;;;;;;;;;14.40;61.57;98976.94;5094559;28;20356;-42
2023/04/15 02:08:54;;;;;;;;;;;;;;;14.45;60.98;98971.66;5094422;28;19986;-43
2023/04/15 02:11:19;;;;;;;;;;;;;;;14.62;60.10;98976.16;5094388;28;19912;-42
2023/04/15 02:13:45;;;;;;;;;;;;;;;14.64;59.83;98960.66;5094461;28;19912;-43
2023/04/15 02:16:17;;;;;;;;;;;;;;;14.42;60.10;98964.13;5094475;28;19969;-44
2023/04/15 02:18:43;;;;;;;;;;;;;;;14.53;59.54;98961.59;5094203;28;19919;-44
2023/04/15 02:21:09;;;;;;;;;;;;;;;14.54;58.79;98963.19;5094260;28;19916;-43
2023/04/15 02:23:34;;;;;;;;;;;;;;;14.50;58.53;98959.41;5094070;28;19920;-41
2023/04/15 02:25:59;;;;;;;;;;;;;;;14.21;59.38;98957.66;5093805;28;19931;-42
2023/04/15 02:28:26;;;;;;;;;;;;;;;14.15;58.51;98956.00;5094177;28;20303;-43
2023/04/15 02:30:52;;;;;;;;;;;;;;;14.00;59.05;98969.16;5094006;28;20017;-41
2023/04/15 02:33:17;;;;;;;;;;;;;;;14.04;58.62;98952.34;5093901;28;19997;-43
2023/04/15 02:35:44;;;;;;;;;;;;;;;13.87;59.11;98948.88;5094086;28;20060;-41
2023/04/15 02:38:10;;;;;;;;;;;;;;;13.98;59.19;98947.19;5093789;28;19912;-42
2023/04/15 02:40:36;;;;;;;;;;;;;;;14.06;58.69;98944.88;5093925;28;19916;-42
2023/04/15 02:43:01;;;;;;;;;;;;;;;14.28;58.20;98944.13;5094107;28;20391;-41
2023/04/15 02:45:27;;;;;;;;;;;;;;;14.36;58.02;98953.59;5093623;28;19961;-42
2023/04/15 02:47:52;;;;;;;;;;;;;;;14.43;57.49;98959.56;5093865;28;20325;-42
2023/04/15 02:50:17;;;;;;;;;;;;;;;14.02;57.77;98962.47;5093860;28;19920;-42
2023/04/15 02:52:43;;;;;;;;;;;;;;;13.75;58.43;98974.91;5093698;28;19912;-42
2023/04/15 02:55:09;;;;;;;;;;;;;;;13.73;57.96;98977.81;5093525;28;20388;-42
2023/04/15 02:57:36;;;;;;;;;;;;;;;13.68;58.57;98973.19;5092731;28;19915;-42
2023/04/15 03:00:02;;;;;;;;;;;;;;;13.64;57.97;98977.41;5093715;28;19919;-43
2023/04/15 03:02:32;;;;;;;;;;;;;;;13.68;58.14;98978.53;5093229;28;19916;-43
2023/04/15 03:04:57;;;;;;;;;;;;;;;13.10;59.50;98976.97;5093302;28;19919;-43
2023/04/15 03:07:22;;;;;;;;;;;;;;;13.23;59.16;98968.66;5093445;28;19912;-43
2023/04/15 03:09:48;;;;;;;;;;;;;;;13.42;58.95;98952.41;5093276;28;19981;-43
2023/04/15 03:12:13;;;;;;;;;;;;;;;13.59;59.04;98953.25;5093234;28;19969;-43
2023/04/15 03:14:38;;;;;;;;;;;;;;;13.74;58.87;98968.72;5093192;28;19912;-43
2023/04/15 03:17:03;;;;;;;;;;;;;;;13.52;58.32;98965.97;5093131;28;19958;-43
2023/04/15 03:19:29;;;;;;;;;;;;;;;13.36;59.21;98972.91;5092988;28;19912;-42
2023/04/15 03:21:54;;;;;;;;;;;;;;;13.08;60.24;98984.41;5093169;28;20380;-42
2023/04/15 03:24:19;;;;;;;;;;;;;;;13.46;58.98;98981.13;5092715;28;19930;-42
2023/04/15 03:26:45;;;;;;;;;;;;;;;13.80;57.63;98986.50;5093043;28;20395;-42
2023/04/15 03:29:10;;;;;;;;;;;;;;;13.96;57.12;98981.38;5092993;28;19912;-42
2023/04/15 03:31:35;;;;;;;;;;;;;;;14.01;57.03;98992.16;5093105;28;19912;-42
2023/04/15 03:34:01;;;;;;;;;;;;;;;13.88;56.40;98990.63;5092518;28;20006;-41
2023/04/15 03:36:28;;;;;;;;;;;;;;;13.88;56.75;98996.78;5092714;28;19912;-41
2023/04/15 03:38:54;;;;;;;;;;;;;;;13.93;55.41;98996.03;5092948;28;19912;-37
2023/04/15 03:41:20;;;;;;;;;;;;;;;14.00;55.43;99010.06;5092638;28;19912;-36
2023/04/15 03:43:45;;;;;;;;;;;;;;;13.73;56.89;99023.28;5092750;28;20306;-37
2023/04/15 03:46:11;;;;;;;;;;;;;;;13.27;57.77;99038.47;5092602;28;19930;-37
2023/04/15 03:48:36;;;;;;;;;;;;;;;12.59;60.09;99024.00;5092540;28;19912;-36
2023/04/15 03:51:01;;;;;;;;;;;;;;;13.12;59.06;99033.63;5092692;28;20002;-37
2023/04/15 03:53:26;;;;;;;;;;;;;;;12.71;60.18;99022.09;5092722;28;19912;-37
2023/04/15 03:55:52;;;;;;;;;;;;;;;12.97;59.22;99042.13;5092722;28;19957;-36
2023/04/15 03:58:17;;;;;;;;;;;;;;;12.99;59.55;99039.25;5092390;28;19984;-36
2023/04/15 04:00:43;;;;;;;;;;;;;;;12.66;60.51;99054.00;5092348;28;19912;-36
2023/04/15 04:03:08;;;;;;;;;;;;;;;12.68;60.21;99058.09;5092484;28;19920;-36
2023/04/15 04:05:35;;;;;;;;;;;;;;;12.47;60.96;99064.84;5092416;28;19912;-36
2023/04/15 04:08:01;;;;;;;;;;;;;;;12.90;59.49;99052.94;5092164;28;20307;-36
2023/04/15 04:10:26;;;;;;;;;;;;;;;12.87;60.07;99047.25;5092045;28;19912;-36
2023/04/15 04:12:51;;;;;;;;;;;;;;;12.91;60.28;99051.91;5092273;28;19916;-36
2023/04/15 04:15:17;;;;;;;;;;;;;;;13.08;59.73;99038.63;5092343;28;19951;-36
2023/04/15 04:17:42;;;;;;;;;;;;;;;13.20;59.60;99051.94;5092245;28;20348;-36
2023/04/15 04:20:07;;;;;;;;;;;;;;;13.06;59.82;99059.41;5092100;28;19912;-38
2023/04/15 04:22:37;;;;;;;;;;;;;;;13.27;58.82;99060.63;5091636;28;19916;-36
2023/04/15 04:25:02;;;;;;;;;;;;;;;13.44;58.39;99059.88;5091793;28;20052;-38
2023/04/15 04:27:27;;;;;;;;;;;;;;;13.00;60.13;99057.66;5091830;28;20028;-38
2023/04/15 04:29:52;;;;;;;;;;;;;;;13.47;58.84;99067.44;5091619;28;19912;-37
2023/04/15 04:32:18;;;;;;;;;;;;;;;13.60;58.07;99055.66;5091719;28;20309;-39
2023/04/15 04:34:43;;;;;;;;;;;;;;;14.07;56.09;99061.56;5091937;28;19973;-37
2023/04/15 04:37:08;;;;;;;;;;;;;;;14.12;55.02;99062.69;5091571;28;19912;-37
2023/04/15 04:39:33;;;;;;;;;;;;;;;14.32;54.45;99063.00;5091825;28;19912;-37
2023/04/15 04:42:00;;;;;;;;;;;;;;;14.26;54.82;99059.44;5091376;28;20009;-37
2023/04/15 04:44:25;;;;;;;;;;;;;;;14.62;54.26;99068.03;5091331;28;20338;-36
2023/04/15 04:46:51;;;;;;;;;;;;;;;15.07;53.17;99074.25;5090917;28;19920;-36
2023/04/15 04:49:16;;;;;;;;;;;;;;;15.03;52.83;99081.16;5091251;28;19919;-36
2023/04/15 04:51:41;;;;;;;;;;;;;;;15.31;52.71;99079.38;5091068;28;19912;-36
2023/04/15 04:54:07;;;;;;;;;;;;;;;15.92;50.75;99071.97;5091357;28;20408;-36
2023/04/15 04:56:33;;;;;;;;;;;;;;;16.27;49.58;99084.06;5091202;28;19912;-37
2023/04/15 04:58:58;;;;;;;;;;;;;;;16.75;48.08;99087.63;5091209;28;20286;-37
2023/04/15 05:01:25;;;;;;;;;;;;;;;16.84;46.65;99081.78;5091139;28;19919;-37
2023/04/15 05:03:50;;;;;;;;;;;;;;;17.10;46.52;99080.84;5090870;28;20007;-37
2023/04/15 05:06:16;;;;;;;;;;;;;;;16.98;46.80;99077.53;5091068;28;19943;-35
2023/04/15 05:08:41;;;;;;;;;;;;;;;17.41;45.55;99075.56;5090834;28;20268;-37
2023/04/15 05:11:06;;;;;;;;;;;;;;;18.01;43.88;99080.53;5091230;28;19912;-38
2023/04/15 05:13:32;;;;;;;;;;;;;;;18.36;43.49;99083.22;5091261;28;19912;-37
2023/04/15 05:15:57;;;;;;;;;;;;;;;18.86;43.04;99083.44;5091150;28;19919;-37
2023/04/15 05:18:22;;;;;;;;;;;;;;;19.50;41.48;99078.31;5091308;28;19929;-37
2023/04/15 05:20:48;;;;;;;;;;;;;;;19.80;41.32;99084.63;5091303;28;20354;-37
2023/04/15 05:23:14;;;;;;;;;;;;;;;20.30;40.25;99077.25;5095640;28;19920;-37
2023/04/15 05:25:40;;;;;;;;;;;;;;;19.92;41.24;99075.09;5095132;28;19930;-37
2023/04/15 05:28:05;;;;;;;;;;;;;;;20.63;39.99;99083.69;5095194;28;19916;-37
2023/04/15 05:30:30;;;;;;;;;;;;;;;21.29;38.50;99086.75;5095009;28;19969;-37
2023/04/15 05:32:56;;;;;;;;;;;;;;;21.63;37.85;99100.13;5095109;28;19928;-37
2023/04/15 05:35:21;;;;;;;;;;;;;;;21.63;37.74;99102.03;5095186;28;19962;-37
2023/04/15 05:37:47;;;;;;;;;;;;;;;21.27;38.67;99107.91;5095207;28;19921;-41
2023/04/15 05:40:12;;;;;;;;;;;;;;;21.50;38.63;99117.09;5094711;28;19913;-37
2023/04/15 05:42:37;;;;;;;;;;;;;;;21.39;37.74;99118.28;5094699;28;20414;-36
2023/04/15 05:45:04;;;;;;;;;;;;;;;21.85;36.58;99121.19;5094736;28;19912;-36
2023/04/15 05:47:29;;;;;;;;;;;;;;;22.64;34.94;99117.81;5094317;28;20010;-36
2023/04/15 05:49:55;;;;;;;;;;;;;;;22.95;34.49;99124.56;5094198;28;19999;-37
2023/04/15 05:52:20;;;;;;;;;;;;;;;22.38;34.88;99135.63;5094318;28;19944;-38
2023/04/15 05:54:45;;;;;;;;;;;;;;;22.94;34.28;99126.50;5093945;28;20408;-37
2023/04/15 05:57:11;;;;;;;;;;;;;;;23.14;33.80;99130.75;5094294;28;19912;-36
2023/04/15 05:59:37;;;;;;;;;;;;;;;22.88;33.92;99127.66;5094309;28;19912;-36
2023/04/15 06:02:03;;;;;;;;;;;;;;;22.33;34.73;99131.09;5094202;28;19912;-37
2023/04/15 06:04:28;;;;;;;;;;;;;;;21.86;35.72;99139.06;5094571;28;20394;-36
2023/04/15 06:06:53;;;;;;;;;;;;;;;22.67;34.64;99137.28;5094293;28;19912;-36
2023/04/15 06:09:19;;;;;;;;;;;;;;;22.41;34.98;99140.44;5094378;28;19912;-35
2023/04/15 06:11:44;;;;;;;;;;;;;;;23.49;33.75;99143.88;5094452;28;19916;-37
2023/04/15 06:14:09;;;;;;;;;;;;;;;23.53;33.36;99151.13;5094327;28;19959;-36
2023/04/15 06:16:35;;;;;;;;;;;;;;;24.32;32.04;99146.41;5094019;28;19916;-36
2023/04/15 06:19:00;;;;;;;;;;;;;;;24.74;31.38;99150.53;5094174;28;19912;-36
2023/04/15 06:21:26;;;;;;;;;;;;;;;25.43;30.40;99159.31;5093423;28;20391;-36
2023/04/15 06:23:51;;;;;;;;;;;;;;;25.28;30.34;99160.56;5094169;28;19924;-36
2023/04/15 06:26:17;;;;;;;;;;;;;;;25.56;30.19;99166.56;5093628;28;19924;-37
2023/04/15 06:28:42;;;;;;;;;;;;;;;25.69;30.26;99162.91;5093812;28;19986;-35
2023/04/15 06:31:07;;;;;;;;;;;;;;;26.63;29.03;99156.97;5093770;28;19912;-36
2023/04/15 06:33:33;;;;;;;;;;;;;;;27.04;28.18;99162.97;5093334;28;19989;-37
2023/04/15 06:35:58;;;;;;;;;;;;;;;27.36;27.72;99164.31;5093525;28;19919;-36
2023/04/15 06:38:23;;;;;;;;;;;;;;;27.01;28.18;99169.88;5093737;28;19912;-37
2023/04/15 06:40:49;;;;;;;;;;;;;;;26.33;28.93;99169.69;5093472;28;20383;-35
2023/04/15 06:43:14;;;;;;;;;;;;;;;26.57;29.06;99166.44;5093550;28;19916;-36
2023/04/15 06:45:39;;;;;;;;;;;;;;;26.22;29.25;99161.03;5093642;28;19995;-37
2023/04/15 06:48:05;;;;;;;;;;;;;;;27.10;28.51;99161.66;5093593;28;20003;-36
2023/04/15 06:50:30;;;;;;;;;;;;;;;27.46;28.22;99163.13;5093439;28;19912;-36
2023/04/15 06:52:56;;;;;;;;;;;;;;;26.39;29.66;99165.69;5093344;28;20488;-36
2023/04/15 06:55:21;;;;;;;;;;;;;;;27.34;28.56;99165.75;5093504;28;20372;-35
2023/04/15 06:57:46;;;;;;;;;;;;;;;27.58;28.42;99168.66;5093398;28;19912;-35
2023/04/15 07:00:12;;;;;;;;;;;;;;;28.08;27.80;99173.34;5093352;28;19956;-36
2023/04/15 07:02:37;;;;;;;;;;;;;;;28.29;27.80;99158.81;5092736;28;19965;-38
2023/04/15 07:05:03;;;;;;;;;;;;;;;28.99;27.22;99166.34;5092497;28;19955;-37
2023/04/15 07:07:29;;;;;;;;;;;;;;;29.21;27.33;99160.47;5092998;28;19935;-35
2023/04/15 07:09:54;;;;;;;;;;;;;;;29.14;27.36;99173.13;5093014;28;19912;-36
2023/04/15 07:12:20;;;;;;;;;;;;;;;29.47;27.02;99172.19;5092760;28;19935;-36
2023/04/15 07:14:45;;;;;;;;;;;;;;;29.81;26.60;99179.16;5092846;28;20271;-36
2023/04/15 07:17:11;;;;;;;;;;;;;;;29.88;26.24;99176.63;5092898;28;19916;-37
2023/04/15 07:19:36;;;;;;;;;;;;;;;29.66;26.99;99180.63;5092584;28;19916;-36
2023/04/15 07:22:01;;;;;;;;;;;;;;;29.98;26.53;99178.88;5092633;28;19978;-36
2023/04/15 07:24:26;;;;;;;;;;;;;;;30.22;26.05;99182.69;5092603;28;20387;-37
2023/04/15 07:26:57;;;;;;;;;;;;;;;28.97;27.15;99185.84;5092387;28;19916;-37
2023/04/15 07:29:22;;;;;;;;;;;;;;;29.76;26.85;99190.38;5092667;28;20242;-36
2023/04/15 07:31:47;;;;;;;;;;;;;;;30.13;26.77;99201.25;5092829;28;19912;-36
2023/04/15 07:34:13;;;;;;;;;;;;;;;29.96;26.49;99197.63;5092107;28;20364;-36
2023/04/15 07:36:39;;;;;;;;;;;;;;;28.30;28.85;99196.00;5091868;28;20405;-37
2023/04/15 07:39:04;;;;;;;;;;;;;;;29.15;27.45;99189.22;5091831;28;19912;-37
2023/04/15 07:41:30;;;;;;;;;;;;;;;29.59;26.64;99183.97;5092004;28;19954;-36
2023/04/15 07:43:55;;;;;;;;;;;;;;;30.05;26.42;99185.75;5091492;28;19920;-36
2023/04/15 07:46:23;;;;;;;;;;;;;;;28.21;27.82;99181.59;5091967;28;19913;-37
2023/04/15 07:48:48;;;;;;;;;;;;;;;29.48;26.86;99182.03;5091978;28;19912;-37
2023/04/15 07:51:13;;;;;;;;;;;;;;;29.12;27.61;99173.44;5091995;28;19919;-37
2023/04/15 07:53:38;;;;;;;;;;;;;;;30.07;26.57;99184.22;5091936;28;19959;-37
2023/04/15 07:56:04;;;;;;;;;;;;;;;30.91;24.95;99180.69;5091940;28;19919;-37
2023/04/15 07:58:29;;;;;;;;;;;;;;;30.84;24.43;99177.72;5091928;28;19919;-36
2023/04/15 08:00:55;;;;;;;;;;;;;;;30.05;24.95;99183.78;5092156;28;19916;-37
2023/04/15 08:03:21;;;;;;;;;;;;;;;30.64;24.62;99187.81;5092058;28;20410;-37
2023/04/15 08:05:46;;;;;;;;;;;;;;;31.27;24.30;99184.31;5092166;28;19923;-36
2023/04/15 08:08:12;;;;;;;;;;;;;;;31.71;25.02;99191.63;5091834;28;19913;-37
2023/04/15 08:10:37;;;;;;;;;;;;;;;31.70;24.70;99179.03;5091830;28;20288;-35
2023/04/15 08:13:03;;;;;;;;;;;;;;;32.18;23.73;99182.44;5091510;28;20391;-36
2023/04/15 08:15:28;;;;;;;;;;;;;;;30.83;24.88;99181.63;5091807;28;19912;-37
2023/04/15 08:17:53;;;;;;;;;;;;;;;31.32;24.44;99181.31;5091713;28;20300;-36
2023/04/15 08:20:19;;;;;;;;;;;;;;;31.90;24.31;99177.91;5091514;28;20360;-36
2023/04/15 08:22:46;;;;;;;;;;;;;;;31.77;24.22;99177.22;5091360;28;19916;-36
2023/04/15 08:25:12;;;;;;;;;;;;;;;31.92;23.85;99181.09;5090841;28;19924;-37
2023/04/15 08:27:37;;;;;;;;;;;;;;;31.07;25.22;99186.19;5091403;28;19912;-36
2023/04/15 08:30:03;;;;;;;;;;;;;;;30.06;25.52;99181.84;5091712;28;19912;-36
2023/04/15 08:32:28;;;;;;;;;;;;;;;29.03;26.87;99179.03;5091147;28;19912;-38
2023/04/15 08:34:54;;;;;;;;;;;;;;;29.44;26.10;99171.75;5091484;28;19934;-37
2023/04/15 08:37:19;;;;;;;;;;;;;;;29.59;26.28;99170.25;5091036;28;19961;-36
2023/04/15 08:39:45;;;;;;;;;;;;;;;29.47;26.49;99170.25;5091045;28;19969;-37
2023/04/15 08:42:15;;;;;;;;;;;;;;;29.13;26.30;99163.28;5090933;28;19913;-36
2023/04/15 08:44:41;;;;;;;;;;;;;;;27.35;28.97;99167.38;5091520;28;20070;-36
2023/04/15 08:47:07;;;;;;;;;;;;;;;27.50;28.88;99172.25;5093889;28;19919;-36
2023/04/15 08:49:34;;;;;;;;;;;;;;;27.96;28.05;99170.53;5098892;28;19923;-41
2023/04/15 08:52:01;;;;;;;;;;;;;;;28.40;27.95;99167.44;5090772;28;19920;-42
2023/04/15 08:54:27;;;;;;;;;;;;;;;28.65;27.23;99166.41;5073200;28;19916;-42
2023/04/15 08:56:52;;;;;;;;;;;;;;;27.81;27.88;99168.38;5070311;28;19916;-42
2023/04/15 08:59:20;;;;;;;;;;;;;;;27.59;27.84;99162.09;5071499;28;19962;-42
2023/04/15 09:01:45;;;;;;;;;;;;;;;28.00;27.90;99171.47;5071393;28;19916;-43
2023/04/15 09:04:11;;;;;;;;;;;;;;;27.93;28.00;99179.41;5071828;28;19916;-42
2023/04/15 09:06:38;;;;;;;;;;;;;;;27.45;28.10;99170.50;5070869;28;19912;-42
2023/04/15 09:09:04;;;;;;;;;;;;;;;28.36;27.13;99167.28;5070893;28;19913;-41
2023/04/15 09:11:30;;;;;;;;;;;;;;;28.80;26.83;99158.66;5068808;28;19912;-43
2023/04/15 09:13:55;;;;;;;;;;;;;;;28.13;27.95;99166.06;5069141;28;19961;-41
2023/04/15 09:16:21;;;;;;;;;;;;;;;27.44;28.04;99159.94;5069714;28;19942;-43
2023/04/15 09:18:46;;;;;;;;;;;;;;;27.52;28.21;99163.75;5070203;28;19912;-41
2023/04/15 09:21:12;;;;;;;;;;;;;;;26.68;29.30;99165.00;5070154;28;19912;-42
2023/04/15 09:23:39;;;;;;;;;;;;;;;26.34;30.66;99163.09;5070255;28;19959;-42
2023/04/15 09:26:05;;;;;;;;;;;;;;;24.65;33.58;99154.31;5070238;28;19925;-41
2023/04/15 09:28:30;;;;;;;;;;;;;;;23.63;34.93;99166.41;5070612;28;20289;-41
2023/04/15 09:30:56;;;;;;;;;;;;;;;22.94;35.38;99153.63;5070234;28;20046;-41
2023/04/15 09:33:22;;;;;;;;;;;;;;;23.27;34.67;99145.41;5070412;28;19995;-41
2023/04/15 09:35:55;;;;;;;;;;;;;;;23.88;33.25;99145.25;5070134;28;20373;-41
2023/04/15 09:38:21;;;;;;;;;;;;;;;24.14;33.37;99149.00;5070029;28;19912;-41
2023/04/15 09:40:46;;;;;;;;;;;;;;;25.23;31.41;99142.44;5070340;28;19912;-41
2023/04/15 09:43:11;;;;;;;;;;;;;;;25.55;31.00;99146.69;5070335;28;19917;-42
2023/04/15 09:45:37;;;;;;;;;;;;;;;25.70;31.40;99140.00;5070222;28;19912;-42
2023/04/15 09:48:14;;;;;;;;;;;;;;;25.09;32.21;99139.00;5070438;28;19913;-41
2023/04/15 09:50:41;;;;;;;;;;;;;;;25.87;31.41;99132.94;5070219;28;19913;-42
2023/04/15 09:53:13;;;;;;;;;;;;;;;24.89;32.60;99134.94;5069999;28;19955;-41
2023/04/15 09:55:38;;;;;;;;;;;;;;;25.12;31.52;99144.63;5070151;28;19912;-41
2023/04/15 09:58:16;;;;;;;;;;;;;;;24.22;31.40;99125.72;5069991;28;19962;-41
2023/04/15 10:00:42;;;;;;;;;;;;;;;24.92;30.27;99139.72;5070144;28;19912;-41
2023/04/15 10:03:07;;;;;;;;;;;;;;;24.69;30.21;99133.53;5069520;28;19916;-40
2023/04/15 10:05:33;;;;;;;;;;;;;;;25.18;29.54;99132.47;5070072;28;19969;-41
2023/04/15 10:07:59;;;;;;;;;;;;;;;25.59;28.19;99129.69;5071829;28;19917;-41
2023/04/15 10:10:25;;;;;;;;;;;;;;;25.88;28.37;99126.38;5073718;28;19913;-43
2023/04/15 10:12:51;;;;;;;;;;;;;;;26.21;27.75;99110.34;5073397;28;19912;-41
2023/04/15 10:15:17;;;;;;;;;;;;;;;25.54;28.86;99114.31;5073642;28;19963;-41
2023/04/15 10:17:43;;;;;;;;;;;;;;;25.42;29.24;99108.69;5073657;28;20046;-41
2023/04/15 10:20:09;;;;;;;;;;;;;;;24.70;30.61;99111.47;5073533;28;19955;-41
2023/04/15 10:22:35;;;;;;;;;;;;;;;23.98;31.02;99110.50;5073480;28;19916;-41
2023/04/15 10:25:01;;;;;;;;;;;;;;;23.85;31.14;99107.84;5073018;28;19921;-41
2023/04/15 10:27:27;;;;;;;;;;;;;;;24.43;30.80;99089.84;5073230;28;20392;-41
2023/04/15 10:29:53;;;;;;;;;;;;;;;23.74;31.62;99107.22;5073441;28;19922;-41
2023/04/15 10:32:20;;;;;;;;;;;;;;;24.27;31.08;99087.50;5073376;28;20108;-41
2023/04/15 10:34:46;;;;;;;;;;;;;;;25.36;30.81;99103.41;5072797;28;19912;-41
2023/04/15 10:37:11;;;;;;;;;;;;;;;26.49;30.25;99082.72;5072727;28;19999;-42
2023/04/15 10:39:36;;;;;;;;;;;;;;;27.48;28.64;99084.38;5073038;28;19948;-43
2023/04/15 10:42:06;;;;;;;;;;;;;;;27.26;29.35;99088.19;5072521;28;19919;-40
2023/04/15 10:44:31;;;;;;;;;;;;;;;27.57;28.88;99081.56;5072804;28;19916;-41
2023/04/15 10:46:57;;;;;;;;;;;;;;;26.52;30.00;99087.50;5072601;28;19938;-42
2023/04/15 10:49:25;;;;;;;;;;;;;;;25.70;30.82;99077.34;5072812;28;19938;-41
2023/04/15 10:51:51;;;;;;;;;;;;;;;25.94;31.91;99079.59;5072892;28;19912;-40
2023/04/15 10:54:16;;;;;;;;;;;;;;;26.60;30.82;99080.44;5072699;28;20396;-42
2023/04/15 10:56:43;;;;;;;;;;;;;;;27.58;29.39;99083.16;5072868;28;19912;-42
2023/04/15 10:59:09;;;;;;;;;;;;;;;27.43;29.04;99077.16;5073013;28;19913;-42
2023/04/15 11:01:53;;;;;;;;;;;;;;;26.24;30.57;99078.91;5072835;28;19913;-42
2023/04/15 11:04:37;;;;;;;;;;;;;;;26.44;29.99;99063.78;5072632;28;20413;-42
2023/04/15 11:07:05;;;;;;;;;;;;;;;26.57;29.44;99060.03;5072818;28;19962;-42
2023/04/15 11:09:34;;;;;;;;;;;;;;;26.61;29.89;99062.94;5072817;28;19912;-42
2023/04/15 11:12:09;;;;;;;;;;;;;;;25.49;30.45;99073.63;5072674;28;19912;-41
2023/04/15 11:14:42;;;;;;;;;;;;;;;25.14;31.19;99060.72;5073048;28;19959;-42
2023/04/15 11:17:07;;;;;;;;;;;;;;;25.92;30.56;99060.03;5072807;28;19912;-42
2023/04/15 11:19:37;;;;;;;;;;;;;;;25.39;30.56;99060.31;5071670;28;19919;-42
2023/04/15 11:22:09;;;;;;;;;;;;;;;25.40;30.71;99059.19;5072441;28;20420;-42
2023/04/15 11:24:35;;;;;;;;;;;;;;;24.05;33.26;99058.44;5072251;28;19993;-42
2023/04/15 11:27:01;;;;;;;;;;;;;;;24.75;32.29;99062.38;5072293;28;20395;-42
2023/04/15 11:29:30;;;;;;;;;;;;;;;25.20;31.28;99055.13;5072215;28;19916;-43
2023/04/15 11:32:08;;;;;;;;;;;;;;;24.99;30.64;99055.72;5070773;28;19916;-42
2023/04/15 11:34:34;;;;;;;;;;;;;;;26.05;29.09;99050.09;5072133;28;20443;-42
2023/04/15 11:37:02;;;;;;;;;;;;;;;26.26;29.31;99047.47;5072188;28;20030;-42
2023/04/15 11:39:28;;;;;;;;;;;;;;;26.90;28.43;99051.25;5072273;28;20380;-42
2023/04/15 11:41:53;;;;;;;;;;;;;;;27.11;29.16;99043.94;5072256;28;19963;-42
2023/04/15 11:44:18;;;;;;;;;;;;;;;25.72;30.13;98993.34;5072167;28;19913;-41
2023/04/15 11:46:44;;;;;;;;;;;;;;;26.17;30.10;99030.31;5071972;28;20391;-43
2023/04/15 11:49:09;;;;;;;;;;;;;;;26.15;30.21;99035.31;5072195;28;19913;-43
2023/04/15 11:51:35;;;;;;;;;;;;;;;25.41;30.67;99036.28;5071734;28;20008;-43
2023/04/15 11:54:00;;;;;;;;;;;;;;;24.57;32.13;99034.28;5071802;28;20019;-42
2023/04/15 11:56:26;;;;;;;;;;;;;;;24.75;32.56;99037.88;5071761;28;19987;-42
2023/04/15 11:59:01;;;;;;;;;;;;;;;24.84;32.15;99026.22;5071498;28;19969;-43
2023/04/15 12:01:38;;;;;;;;;;;;;;;25.22;31.49;99014.78;5071966;28;19913;-43
2023/04/15 12:04:11;;;;;;;;;;;;;;;24.64;31.89;99014.00;5071792;28;19916;-41
2023/04/15 12:06:37;;;;;;;;;;;;;;;24.66;33.22;99009.06;5071570;28;20348;-42
2023/04/15 12:09:05;;;;;;;;;;;;;;;23.88;33.33;99009.44;5071315;28;19913;-41
2023/04/15 12:11:33;;;;;;;;;;;;;;;23.88;33.59;99012.16;5071614;28;19916;-41
2023/04/15 12:14:03;;;;;;;;;;;;;;;24.47;32.53;99017.44;5071770;28;19935;-43
2023/04/15 12:16:29;;;;;;;;;;;;;;;24.61;32.51;99012.69;5071701;28;19912;-42
2023/04/15 12:18:55;;;;;;;;;;;;;;;24.38;32.39;98995.63;5071449;28;19920;-42
2023/04/15 12:21:25;;;;;;;;;;;;;;;23.91;33.75;99012.34;5071491;28;19913;-42
2023/04/15 12:23:51;;;;;;;;;;;;;;;23.94;34.45;99002.75;5071319;28;19912;-42
2023/04/15 12:26:18;;;;;;;;;;;;;;;23.08;36.04;99006.34;5071235;28;19981;-42
2023/04/15 12:28:43;;;;;;;;;;;;;;;23.56;35.42;98997.66;5071391;28;19920;-41
2023/04/15 12:31:09;;;;;;;;;;;;;;;23.70;34.98;98998.38;5080002;28;19916;-42
2023/04/15 12:33:34;;;;;;;;;;;;;;;23.71;35.33;98991.84;5091561;28;19923;-43
2023/04/15 12:36:00;;;;;;;;;;;;;;;23.01;36.04;98993.94;5090961;28;19918;-41
2023/04/15 12:38:25;;;;;;;;;;;;;;;22.24;37.82;99003.56;5090764;28;20387;-41
2023/04/15 12:40:50;;;;;;;;;;;;;;;22.36;38.52;99005.81;5090331;28;19924;-41